createdAt,value
2019-03-25T00:01:15.150Z,45.90
2019-03-25T00:03:48.424Z,50.70
2019-03-25T00:06:21.953Z,43.80
2019-03-25T00:09:04.799Z,46.17
2019-03-25T00:11:30.416Z,45.63
2019-03-25T00:14:14.780Z,47.90
2019-03-25T00:16:48.418Z,48.27
2019-03-25T00:19:21.665Z,50.20
2019-03-25T00:21:55.101Z,51.07
2019-03-25T00:24:38.236Z,47.63
2019-03-25T00:27:03.745Z,42.87
2019-03-25T00:29:37.110Z,44.43
2019-03-25T00:32:10.677Z,48.03
2019-03-25T00:34:43.922Z,42.07
2019-03-25T00:37:17.267Z,43.70
2019-03-25T00:39:50.527Z,43.50
2019-03-25T00:42:24.570Z,48.43
2019-03-25T00:44:57.925Z,47.20
2019-03-25T00:47:31.393Z,49.90
2019-03-25T00:50:04.823Z,50.80
2019-03-25T00:52:38.187Z,49.03
2019-03-25T00:55:11.727Z,53.43
2019-03-25T00:57:45.356Z,51.47
2019-03-25T01:00:18.806Z,53.73
2019-03-25T01:02:52.501Z,49.30
2019-03-25T01:05:25.821Z,49.80
2019-03-25T01:07:59.302Z,52.40
2019-03-25T01:10:33.398Z,55.43
2019-03-25T01:13:06.817Z,55.80
2019-03-25T01:15:40.442Z,50.33
2019-03-25T01:18:17.016Z,50.70
2019-03-25T01:20:48.919Z,58.50
2019-03-25T01:23:22.232Z,50.67
2019-03-25T01:25:55.490Z,51.17
2019-03-25T01:28:29.059Z,50.30
2019-03-25T01:31:03.265Z,49.30
2019-03-25T01:33:36.686Z,53.67
2019-03-25T01:36:10.059Z,54.30
2019-03-25T01:38:43.721Z,56.93
2019-03-25T01:41:16.947Z,56.67
2019-03-25T01:43:50.408Z,55.47
2019-03-25T01:46:23.655Z,56.60
2019-03-25T01:48:57.388Z,54.30
2019-03-25T01:51:30.643Z,53.17
2019-03-25T01:54:04.062Z,52.77
2019-03-25T01:56:38.025Z,54.23
2019-03-25T01:59:12.001Z,54.43
2019-03-25T02:01:45.460Z,58.43
2019-03-25T02:04:18.619Z,50.43
2019-03-25T02:06:52.311Z,61.77
2019-03-25T02:09:25.836Z,60.40
2019-03-25T02:11:59.192Z,55.60
2019-03-25T02:14:32.643Z,60.37
2019-03-25T02:17:06.922Z,55.50
2019-03-25T02:19:40.288Z,55.10
2019-03-25T02:22:13.721Z,54.57
2019-03-25T02:24:47.064Z,61.33
2019-03-25T02:27:20.522Z,55.07
2019-03-25T02:29:53.851Z,61.77
2019-03-25T02:32:27.190Z,57.40
2019-03-25T02:35:00.560Z,57.53
2019-03-25T02:37:34.147Z,58.47
2019-03-25T02:40:07.873Z,61.27
2019-03-25T02:42:41.414Z,55.67
2019-03-25T02:45:14.984Z,60.00
2019-03-25T02:47:48.283Z,56.87
2019-03-25T02:50:21.763Z,60.97
2019-03-25T02:52:55.068Z,60.60
2019-03-25T02:55:40.785Z,60.47
2019-03-25T02:58:04.321Z,61.30
2019-03-25T03:00:39.267Z,58.43
2019-03-25T03:03:12.733Z,60.93
2019-03-25T03:05:46.256Z,59.37
2019-03-25T03:08:20.041Z,60.87
2019-03-25T03:10:53.582Z,60.50
2019-03-25T03:13:27.031Z,62.03
2019-03-25T03:16:00.473Z,65.10
2019-03-25T03:18:34.615Z,63.50
2019-03-25T03:21:08.420Z,52.60
2019-03-25T03:23:43.001Z,61.30
2019-03-25T03:26:16.515Z,57.27
2019-03-25T03:28:50.211Z,58.73
2019-03-25T03:31:23.616Z,60.97
2019-03-25T03:33:57.391Z,58.37
2019-03-25T03:36:30.916Z,57.33
2019-03-25T03:39:05.582Z,59.47
2019-03-25T03:41:38.778Z,63.13
2019-03-25T03:44:12.212Z,59.63
2019-03-25T03:46:45.579Z,60.50
2019-03-25T03:49:19.120Z,55.90
2019-03-25T03:51:53.747Z,65.03
2019-03-25T03:54:27.471Z,58.20
2019-03-25T03:57:01.358Z,59.10
2019-03-25T03:59:35.214Z,54.70
2019-03-25T04:02:08.438Z,55.50
2019-03-25T04:04:41.754Z,59.40
2019-03-25T04:07:14.989Z,64.80
2019-03-25T04:09:48.277Z,58.43
2019-03-25T04:12:21.661Z,56.63
2019-03-25T04:14:55.143Z,60.27
2019-03-25T04:17:28.650Z,60.03
2019-03-25T04:20:02.291Z,59.37
2019-03-25T04:22:35.551Z,55.20
2019-03-25T04:25:09.635Z,63.20
2019-03-25T04:27:43.173Z,56.50
2019-03-25T04:30:26.392Z,58.93
2019-03-25T04:33:01.941Z,58.67
2019-03-25T04:35:35.368Z,57.03
2019-03-25T04:38:08.713Z,58.63
2019-03-25T04:40:42.036Z,59.10
2019-03-25T04:43:15.254Z,54.00
2019-03-25T04:45:48.846Z,59.47
2019-03-25T04:48:22.197Z,59.53
2019-03-25T04:50:55.627Z,54.00
2019-03-25T04:53:29.017Z,59.77
2019-03-25T04:56:02.515Z,61.00
2019-03-25T04:58:36.085Z,63.53
2019-03-25T05:01:09.525Z,58.37
2019-03-25T05:03:42.710Z,57.57
2019-03-25T05:06:16.450Z,61.23
2019-03-25T05:09:08.420Z,57.87
2019-03-25T05:11:41.886Z,58.57
2019-03-25T05:14:15.314Z,59.10
2019-03-25T05:16:49.884Z,67.70
2019-03-25T05:19:23.120Z,59.83
2019-03-25T05:21:56.366Z,64.00
2019-03-25T05:24:29.679Z,59.47
2019-03-25T05:27:03.026Z,58.47
2019-03-25T05:29:36.404Z,57.63
2019-03-25T05:32:09.810Z,57.07
2019-03-25T05:34:43.185Z,56.13
2019-03-25T05:37:17.252Z,58.67
2019-03-25T05:39:50.541Z,55.47
2019-03-25T05:42:23.951Z,62.57
2019-03-25T05:44:57.338Z,59.77
2019-03-25T05:47:31.037Z,52.13
2019-03-25T05:50:08.779Z,56.27
2019-03-25T05:52:41.484Z,56.30
2019-03-25T05:55:14.941Z,56.93
2019-03-25T05:57:48.278Z,65.70
2019-03-25T06:00:23.924Z,49.00
2019-03-25T06:02:57.612Z,45.73
2019-03-25T06:05:30.762Z,46.00
2019-03-25T06:08:04.153Z,52.47
2019-03-25T06:10:37.770Z,50.43
2019-03-25T06:13:11.145Z,46.10
2019-03-25T06:15:44.437Z,45.53
2019-03-25T06:18:20.306Z,48.57
2019-03-25T06:20:52.986Z,44.70
2019-03-25T06:23:26.367Z,42.23
2019-03-25T06:25:59.640Z,40.70
2019-03-25T06:28:32.864Z,40.13
2019-03-25T06:31:05.945Z,39.20
2019-03-25T06:33:39.583Z,41.67
2019-03-25T06:36:13.180Z,35.60
2019-03-25T06:38:46.929Z,37.73
2019-03-25T06:41:20.086Z,36.23
2019-03-25T06:43:53.357Z,34.10
2019-03-25T06:46:26.698Z,31.50
2019-03-25T06:48:59.883Z,32.73
2019-03-25T06:51:33.690Z,29.37
2019-03-25T06:54:07.042Z,27.37
2019-03-25T06:56:40.882Z,28.63
2019-03-25T06:59:14.277Z,31.80
2019-03-25T07:01:47.683Z,24.27
2019-03-25T07:04:21.015Z,23.50
2019-03-25T07:06:54.324Z,23.97
2019-03-25T07:09:27.635Z,24.40
2019-03-25T07:12:01.187Z,32.53
2019-03-25T07:14:34.762Z,19.73
2019-03-25T07:17:08.049Z,17.57
2019-03-25T07:19:41.467Z,19.07
2019-03-25T07:22:14.887Z,18.50
2019-03-25T07:24:48.480Z,21.77
2019-03-25T07:27:22.199Z,20.80
2019-03-25T07:29:55.555Z,18.00
2019-03-25T07:32:29.064Z,21.43
2019-03-25T07:35:02.274Z,22.60
2019-03-25T07:37:35.903Z,24.73
2019-03-25T07:40:10.064Z,21.03
2019-03-25T07:42:43.581Z,24.90
2019-03-25T07:45:16.948Z,23.63
2019-03-25T07:47:50.291Z,21.53
2019-03-25T07:50:23.843Z,21.93
2019-03-25T07:52:57.140Z,19.67
2019-03-25T07:55:30.491Z,20.83
2019-03-25T07:58:04.067Z,22.73
2019-03-25T08:00:37.589Z,26.13
2019-03-25T08:03:11.047Z,22.47
2019-03-25T08:05:44.590Z,21.83
2019-03-25T08:08:17.859Z,24.77
2019-03-25T08:10:51.242Z,22.00
2019-03-25T08:13:24.930Z,25.97
2019-03-25T08:15:58.448Z,23.03
2019-03-25T08:18:31.708Z,21.27
2019-03-25T08:21:05.156Z,26.20
2019-03-25T08:23:38.335Z,25.80
2019-03-25T08:26:22.010Z,23.30
2019-03-25T08:28:55.329Z,23.93
2019-03-25T08:31:28.575Z,23.67
2019-03-25T08:34:02.134Z,25.37
2019-03-25T08:36:35.466Z,25.53
2019-03-25T08:39:09.881Z,31.50
2019-03-25T08:41:43.484Z,35.27
2019-03-25T08:44:16.666Z,28.73
2019-03-25T08:46:50.010Z,36.37
2019-03-25T08:49:23.554Z,41.90
2019-03-25T08:51:57.003Z,27.53
2019-03-25T08:54:30.424Z,26.93
2019-03-25T08:57:04.030Z,31.27
2019-03-25T08:59:37.817Z,30.37
2019-03-25T09:02:11.157Z,30.50
2019-03-25T09:04:44.858Z,26.43
2019-03-25T09:07:18.050Z,20.87
2019-03-25T09:09:51.335Z,25.30
2019-03-25T09:12:24.617Z,25.80
2019-03-25T09:14:58.006Z,25.03
2019-03-25T09:17:31.266Z,24.03
2019-03-25T09:20:05.063Z,21.23
2019-03-25T09:22:38.414Z,23.27
2019-03-25T09:25:12.118Z,22.23
2019-03-25T09:27:45.616Z,22.17
2019-03-25T09:30:56.324Z,20.20
2019-03-25T09:33:29.793Z,17.43
2019-03-25T09:36:03.232Z,18.25
2019-03-25T09:38:36.687Z,20.27
2019-03-25T09:41:10.212Z,19.63
2019-03-25T09:43:43.566Z,15.37
2019-03-25T09:46:17.061Z,17.12
2019-03-25T09:48:50.844Z,15.13
2019-03-25T09:51:24.497Z,15.50
2019-03-25T09:53:57.975Z,17.10
2019-03-25T09:56:31.338Z,16.90
2019-03-25T09:59:04.759Z,17.75
2019-03-25T10:01:38.458Z,18.32
2019-03-25T10:04:11.756Z,14.73
2019-03-25T10:06:45.312Z,18.07
2019-03-25T10:09:18.648Z,16.05
2019-03-25T10:11:52.077Z,14.90
2019-03-25T10:14:25.669Z,14.43
2019-03-25T10:16:59.261Z,18.60
2019-03-25T10:19:32.447Z,14.50
2019-03-25T10:22:06.077Z,16.75
2019-03-25T10:24:39.401Z,17.80
2019-03-25T10:27:12.747Z,18.75
2019-03-25T10:29:46.056Z,17.23
2019-03-25T10:32:19.325Z,14.87
2019-03-25T10:34:52.613Z,17.92
2019-03-25T10:37:26.237Z,18.70
2019-03-25T10:39:59.434Z,15.90
2019-03-25T10:42:32.838Z,15.90
2019-03-25T10:45:06.956Z,15.03
2019-03-25T10:47:40.353Z,13.22
2019-03-25T10:50:14.378Z,17.30
2019-03-25T10:52:47.823Z,17.40
2019-03-25T10:55:21.502Z,15.20
2019-03-25T10:57:54.960Z,16.07
2019-03-25T11:00:28.527Z,17.47
2019-03-25T11:03:01.819Z,17.92
2019-03-25T11:05:34.914Z,16.03
2019-03-25T11:08:08.460Z,19.57
2019-03-25T11:10:41.723Z,17.30
2019-03-25T11:13:15.155Z,16.83
2019-03-25T11:15:48.444Z,20.80
2019-03-25T11:18:21.936Z,19.83
2019-03-25T11:20:55.726Z,22.07
2019-03-25T11:23:29.199Z,19.93
2019-03-25T11:26:02.587Z,21.90
2019-03-25T11:28:35.734Z,20.90
2019-03-25T11:31:09.078Z,19.47
2019-03-25T11:33:42.362Z,23.80
2019-03-25T11:36:15.593Z,22.10
2019-03-25T11:38:49.113Z,28.70
2019-03-25T11:41:22.477Z,27.67
2019-03-25T11:43:55.640Z,28.67
2019-03-25T11:46:29.067Z,29.50
2019-03-25T11:49:02.507Z,26.47
2019-03-25T11:51:36.070Z,28.87
2019-03-25T11:54:09.418Z,25.43
2019-03-25T11:56:42.723Z,16.37
2019-03-25T11:59:18.803Z,9.60
2019-03-25T12:01:50.994Z,13.77
2019-03-25T12:04:24.383Z,15.03
2019-03-25T12:06:57.593Z,8.57
2019-03-25T12:09:31.167Z,10.30
2019-03-25T12:12:04.667Z,11.17
2019-03-25T12:14:38.009Z,10.63
2019-03-25T12:17:11.438Z,12.40
2019-03-25T12:19:44.957Z,13.23
2019-03-25T12:22:18.126Z,13.47
2019-03-25T12:24:51.496Z,11.47
2019-03-25T12:27:24.941Z,13.27
2019-03-25T12:29:58.551Z,11.67
2019-03-25T12:32:31.811Z,10.00
2019-03-25T12:35:05.870Z,11.03
2019-03-25T12:37:39.127Z,8.07
2019-03-25T12:40:13.171Z,10.50
2019-03-25T12:42:46.544Z,9.17
2019-03-25T12:45:19.877Z,12.23
2019-03-25T12:47:53.241Z,10.30
2019-03-25T12:50:26.612Z,10.37
2019-03-25T12:52:59.960Z,12.33
2019-03-25T12:55:33.118Z,9.87
2019-03-25T12:58:07.426Z,8.83
2019-03-25T13:00:43.420Z,8.33
2019-03-25T13:03:16.806Z,8.10
2019-03-25T13:05:50.495Z,9.37
2019-03-25T13:08:32.772Z,9.30
2019-03-25T13:10:58.955Z,9.87
2019-03-25T13:13:32.189Z,8.90
2019-03-25T13:16:05.829Z,8.37
2019-03-25T13:18:39.179Z,8.33
2019-03-25T13:21:12.735Z,7.80
2019-03-25T13:23:46.190Z,8.10
2019-03-25T13:26:19.750Z,6.93
2019-03-25T13:29:01.618Z,7.43
2019-03-25T13:31:28.322Z,5.43
2019-03-25T13:34:01.650Z,4.60
2019-03-25T13:36:35.012Z,7.13
2019-03-25T13:39:09.268Z,5.93
2019-03-25T13:41:42.502Z,6.40
2019-03-25T13:44:15.935Z,5.70
2019-03-25T13:46:49.288Z,3.97
2019-03-25T13:49:22.841Z,6.57
2019-03-25T13:51:57.064Z,4.60
2019-03-25T13:54:30.736Z,9.70
2019-03-25T13:57:04.476Z,14.73
2019-03-25T13:59:37.966Z,11.03
2019-03-25T14:02:11.629Z,6.23
2019-03-25T14:04:44.966Z,3.93
2019-03-25T14:07:18.867Z,4.80
2019-03-25T14:09:52.265Z,4.33
2019-03-25T14:12:25.493Z,6.67
2019-03-25T14:14:59.053Z,7.20
2019-03-25T14:17:32.464Z,14.37
2019-03-25T14:20:06.883Z,3.93
2019-03-25T14:22:40.463Z,17.20
2019-03-25T14:25:14.046Z,4.03
2019-03-25T14:27:47.703Z,15.83
2019-03-25T14:30:21.221Z,4.20
2019-03-25T14:32:54.680Z,12.10
2019-03-25T14:35:28.113Z,15.87
2019-03-25T14:38:01.480Z,3.30
2019-03-25T14:40:35.124Z,7.00
2019-03-25T14:43:08.430Z,5.37
2019-03-25T14:45:41.839Z,5.30
2019-03-25T14:48:15.104Z,9.07
2019-03-25T14:50:48.669Z,2.00
2019-03-25T14:53:22.261Z,1.23
2019-03-25T14:55:55.968Z,1.90
2019-03-25T14:58:29.422Z,2.57
2019-03-25T15:01:03.044Z,3.63
2019-03-25T15:03:37.159Z,2.33
2019-03-25T15:06:10.483Z,3.70
2019-03-25T15:08:43.806Z,13.00
2019-03-25T15:11:17.115Z,11.30
2019-03-25T15:13:50.517Z,9.30
2019-03-25T15:16:24.135Z,5.27
2019-03-25T15:18:57.403Z,7.77
2019-03-25T15:21:30.842Z,7.90
2019-03-25T15:24:04.267Z,7.87
2019-03-25T15:26:37.653Z,6.43
2019-03-25T15:29:11.326Z,3.80
2019-03-25T15:31:44.516Z,9.50
2019-03-25T15:34:18.272Z,5.10
2019-03-25T15:36:51.597Z,9.13
2019-03-25T15:39:25.061Z,10.07
2019-03-25T15:41:58.701Z,4.63
2019-03-25T15:44:32.137Z,6.03
2019-03-25T15:47:05.468Z,5.07
2019-03-25T15:49:39.172Z,7.23
2019-03-25T15:52:12.436Z,9.80
2019-03-25T15:54:45.713Z,4.13
2019-03-25T15:57:18.984Z,4.27
2019-03-25T15:59:52.328Z,3.03
2019-03-25T16:02:25.615Z,0.80
2019-03-25T16:04:58.965Z,4.60
2019-03-25T16:07:32.231Z,4.60
2019-03-25T16:10:05.986Z,1.87
2019-03-25T16:12:39.394Z,2.33
2019-03-25T16:15:16.700Z,2.40
2019-03-25T16:17:50.100Z,4.30
2019-03-25T16:20:23.642Z,6.00
2019-03-25T16:22:57.063Z,2.23
2019-03-25T16:25:30.890Z,1.90
2019-03-25T16:28:04.181Z,4.37
2019-03-25T16:30:37.543Z,1.40
2019-03-25T16:33:10.761Z,1.90
2019-03-25T16:35:44.294Z,1.77
2019-03-25T16:38:17.803Z,2.70
2019-03-25T16:40:51.278Z,1.90
2019-03-25T16:43:24.820Z,3.33
2019-03-25T16:45:58.663Z,2.40
2019-03-25T16:48:31.834Z,3.37
2019-03-25T16:51:05.375Z,5.97
2019-03-25T16:53:38.945Z,2.57
2019-03-25T16:56:12.395Z,2.37
2019-03-25T16:58:45.852Z,7.70
2019-03-25T17:01:19.452Z,14.53
2019-03-25T17:03:53.043Z,9.57
2019-03-25T17:06:26.443Z,3.43
2019-03-25T17:08:59.883Z,5.57
2019-03-25T17:11:33.256Z,10.03
2019-03-25T17:14:06.905Z,6.17
2019-03-25T17:16:40.180Z,4.73
2019-03-25T17:19:13.726Z,3.33
2019-03-25T17:21:57.418Z,3.60
2019-03-25T17:24:22.371Z,3.00
2019-03-25T17:26:55.767Z,3.80
2019-03-25T17:29:29.142Z,2.60
2019-03-25T17:32:02.796Z,3.97
2019-03-25T17:34:36.452Z,18.77
2019-03-25T17:37:10.281Z,4.43
2019-03-25T17:39:43.643Z,6.50
2019-03-25T17:42:17.175Z,5.77
2019-03-25T17:44:50.981Z,4.90
2019-03-25T17:47:24.383Z,8.73
2019-03-25T17:49:57.812Z,5.20
2019-03-25T17:52:31.227Z,7.60
2019-03-25T17:55:04.875Z,15.77
2019-03-25T17:57:38.598Z,5.07
2019-03-25T18:00:14.317Z,6.90
2019-03-25T18:02:48.069Z,6.20
2019-03-25T18:05:21.553Z,12.57
2019-03-25T18:07:55.333Z,15.60
2019-03-25T18:10:28.670Z,14.83
2019-03-25T18:13:22.380Z,19.70
2019-03-25T18:15:49.619Z,29.63
2019-03-25T18:18:23.043Z,15.40
2019-03-25T18:20:56.715Z,8.30
2019-03-25T18:23:30.145Z,5.07
2019-03-25T18:26:03.861Z,6.60
2019-03-25T18:28:37.473Z,4.13
2019-03-25T18:31:11.210Z,3.40
2019-03-25T18:33:44.894Z,3.83
2019-03-25T18:36:18.554Z,4.17
2019-03-25T18:38:52.321Z,4.83
2019-03-25T18:41:26.455Z,3.30
2019-03-25T18:44:00.499Z,6.60
2019-03-25T18:46:34.147Z,8.00
2019-03-25T18:49:07.668Z,5.13
2019-03-25T18:51:41.299Z,3.77
2019-03-25T18:54:14.663Z,6.77
2019-03-25T18:56:48.427Z,3.77
2019-03-25T18:59:21.783Z,4.00
2019-03-25T19:01:55.138Z,3.80
2019-03-25T19:04:29.011Z,4.03
2019-03-25T19:07:03.474Z,4.00
2019-03-25T19:09:36.884Z,3.77
2019-03-25T19:12:10.963Z,3.20
2019-03-25T19:14:44.276Z,3.97
2019-03-25T19:17:18.352Z,4.20
2019-03-25T19:19:51.690Z,4.43
2019-03-25T19:22:25.288Z,4.73
2019-03-25T19:24:58.587Z,5.93
2019-03-25T19:27:32.471Z,4.77
2019-03-25T19:30:07.158Z,4.40
2019-03-25T19:32:40.867Z,3.70
2019-03-25T19:35:14.601Z,3.80
2019-03-25T19:37:48.177Z,47.27
2019-03-25T19:40:21.545Z,5.30
2019-03-25T19:42:55.110Z,4.20
2019-03-25T19:45:28.450Z,4.07
2019-03-25T19:48:01.588Z,4.27
2019-03-25T19:50:35.088Z,4.37
2019-03-25T19:53:18.642Z,4.13
2019-03-25T19:55:43.924Z,4.60
2019-03-25T19:58:17.789Z,3.73
2019-03-25T20:00:51.407Z,3.93
2019-03-25T20:03:25.227Z,4.60
2019-03-25T20:05:58.597Z,4.00
2019-03-25T20:08:32.798Z,4.73
2019-03-25T20:11:06.390Z,4.33
2019-03-25T20:13:39.711Z,3.63
2019-03-25T20:16:13.463Z,3.80
2019-03-25T20:18:47.089Z,3.40
2019-03-25T20:21:20.609Z,4.97
2019-03-25T20:23:54.060Z,7.83
2019-03-25T20:26:27.764Z,9.53
2019-03-25T20:29:01.252Z,8.87
2019-03-25T20:31:34.505Z,8.43
2019-03-25T20:34:11.257Z,8.93
2019-03-25T20:36:43.542Z,5.10
2019-03-25T20:39:17.010Z,7.00
2019-03-25T20:41:50.446Z,8.00
2019-03-25T20:44:23.961Z,4.50
2019-03-25T20:46:57.673Z,4.40
2019-03-25T20:49:31.173Z,4.60
2019-03-25T20:52:05.228Z,4.73
2019-03-25T20:54:38.714Z,4.27
2019-03-25T20:57:12.023Z,4.90
2019-03-25T20:59:55.208Z,5.20
2019-03-25T21:02:28.569Z,4.20
2019-03-25T21:05:01.927Z,5.53
2019-03-25T21:07:35.542Z,4.00
2019-03-25T21:10:10.392Z,4.37
2019-03-25T21:12:43.996Z,3.50
2019-03-25T21:15:17.226Z,3.50
2019-03-25T21:17:50.761Z,5.50
2019-03-25T21:20:24.313Z,3.90
2019-03-25T21:22:58.193Z,6.33
2019-03-25T21:25:31.456Z,3.27
2019-03-25T21:28:07.961Z,3.70
2019-03-25T21:30:47.767Z,3.90
2019-03-25T21:33:16.726Z,4.23
2019-03-25T21:35:50.102Z,4.27
2019-03-25T21:38:23.540Z,3.97
2019-03-25T21:40:56.778Z,3.90
2019-03-25T21:43:30.355Z,4.03
2019-03-25T21:46:03.585Z,3.37
2019-03-25T21:48:39.822Z,3.47
2019-03-25T21:51:13.642Z,4.50
2019-03-25T21:53:47.065Z,4.13
2019-03-25T21:56:20.510Z,4.17
2019-03-25T21:58:54.290Z,3.97
2019-03-25T22:01:27.928Z,4.13
2019-03-25T22:04:01.205Z,4.17
2019-03-25T22:06:37.404Z,4.97
2019-03-25T22:09:11.002Z,3.90
2019-03-25T22:11:44.469Z,4.23
2019-03-25T22:14:18.148Z,4.43
2019-03-25T22:16:51.454Z,6.20
2019-03-25T22:19:24.959Z,6.53
2019-03-25T22:21:58.170Z,4.93
2019-03-25T22:24:31.786Z,4.40
2019-03-25T22:27:05.378Z,4.70
2019-03-25T22:29:38.679Z,5.40
2019-03-25T22:32:11.884Z,5.23
2019-03-25T22:34:45.585Z,4.73
2019-03-25T22:37:18.829Z,4.93
2019-03-25T22:39:52.461Z,4.73
2019-03-25T22:42:25.876Z,5.27
2019-03-25T22:44:59.335Z,4.83
2019-03-25T22:47:32.585Z,4.00
2019-03-25T22:50:07.660Z,5.60
2019-03-25T22:52:40.847Z,4.53
2019-03-25T22:55:13.976Z,4.50
2019-03-25T22:57:47.359Z,4.60
2019-03-25T23:00:24.464Z,4.67
2019-03-25T23:02:58.182Z,4.87
2019-03-25T23:05:31.541Z,5.13
2019-03-25T23:08:04.619Z,6.37
2019-03-25T23:10:38.029Z,6.27
2019-03-25T23:13:11.743Z,4.80
2019-03-25T23:15:45.081Z,4.47
2019-03-25T23:18:18.584Z,4.57
2019-03-25T23:20:51.989Z,5.37
2019-03-25T23:23:25.281Z,6.17
2019-03-25T23:25:58.884Z,6.70
2019-03-25T23:28:32.465Z,5.80
2019-03-25T23:31:05.956Z,5.37
2019-03-25T23:33:51.429Z,4.40
2019-03-25T23:36:14.543Z,5.00
2019-03-25T23:38:47.789Z,4.40
2019-03-25T23:41:23.175Z,4.93
2019-03-25T23:43:56.395Z,7.13
2019-03-25T23:46:30.132Z,4.87
2019-03-25T23:49:03.571Z,7.20
2019-03-25T23:51:38.009Z,4.90
2019-03-25T23:54:12.518Z,4.93
2019-03-25T23:56:46.111Z,5.40
2019-03-25T23:59:19.313Z,5.57
